sensor_id;sensor_type;location;lat;lon;timestamp;P1;durP1;ratioP1;P2;durP2;ratioP2
10761;SDS011;5433;50.862;4.320;2023-12-20T00:02:01;12.45;;;2.25;;
10761;SDS011;5433;50.862;4.320;2023-12-20T00:04:27;7.95;;;2.28;;
10761;SDS011;5433;50.862;4.320;2023-12-20T00:06:53;9.43;;;2.47;;
10761;SDS011;5433;50.862;4.320;2023-12-20T00:09:19;9.07;;;2.00;;
10761;SDS011;5433;50.862;4.320;2023-12-20T00:11:45;9.93;;;2.28;;
10761;SDS011;5433;50.862;4.320;2023-12-20T00:14:11;9.52;;;2.10;;
10761;SDS011;5433;50.862;4.320;2023-12-20T00:16:37;7.85;;;2.20;;
10761;SDS011;5433;50.862;4.320;2023-12-20T00:19:03;8.98;;;2.30;;
10761;SDS011;5433;50.862;4.320;2023-12-20T00:21:29;7.95;;;2.30;;
10761;SDS011;5433;50.862;4.320;2023-12-20T00:23:55;7.20;;;2.00;;
10761;SDS011;5433;50.862;4.320;2023-12-20T00:26:21;9.00;;;2.20;;
10761;SDS011;5433;50.862;4.320;2023-12-20T00:28:47;8.98;;;2.00;;
10761;SDS011;5433;50.862;4.320;2023-12-20T00:31:13;10.60;;;2.15;;
10761;SDS011;5433;50.862;4.320;2023-12-20T00:33:39;7.93;;;2.05;;
10761;SDS011;5433;50.862;4.320;2023-12-20T00:36:08;9.48;;;2.10;;
10761;SDS011;5433;50.862;4.320;2023-12-20T00:38:34;8.57;;;1.70;;
10761;SDS011;5433;50.862;4.320;2023-12-20T00:41:00;4.63;;;1.92;;
10761;SDS011;5433;50.862;4.320;2023-12-20T00:43:27;6.38;;;2.17;;
10761;SDS011;5433;50.862;4.320;2023-12-20T00:45:53;9.70;;;2.30;;
10761;SDS011;5433;50.862;4.320;2023-12-20T00:48:20;10.57;;;2.20;;
10761;SDS011;5433;50.862;4.320;2023-12-20T00:50:46;11.35;;;2.17;;
10761;SDS011;5433;50.862;4.320;2023-12-20T00:53:12;9.30;;;2.20;;
10761;SDS011;5433;50.862;4.320;2023-12-20T00:55:38;9.35;;;2.40;;
10761;SDS011;5433;50.862;4.320;2023-12-20T00:58:05;6.97;;;2.42;;
10761;SDS011;5433;50.862;4.320;2023-12-20T01:00:31;9.63;;;2.35;;
10761;SDS011;5433;50.862;4.320;2023-12-20T01:02:57;7.03;;;2.55;;
10761;SDS011;5433;50.862;4.320;2023-12-20T01:05:23;7.18;;;2.70;;
10761;SDS011;5433;50.862;4.320;2023-12-20T01:07:49;10.93;;;2.80;;
10761;SDS011;5433;50.862;4.320;2023-12-20T01:10:15;13.38;;;3.45;;
10761;SDS011;5433;50.862;4.320;2023-12-20T01:12:42;9.48;;;2.80;;
10761;SDS011;5433;50.862;4.320;2023-12-20T01:15:09;10.88;;;2.78;;
10761;SDS011;5433;50.862;4.320;2023-12-20T01:17:35;12.38;;;3.00;;
10761;SDS011;5433;50.862;4.320;2023-12-20T01:20:01;7.03;;;2.60;;
10761;SDS011;5433;50.862;4.320;2023-12-20T01:22:27;12.65;;;2.90;;
10761;SDS011;5433;50.862;4.320;2023-12-20T01:24:53;12.52;;;3.10;;
10761;SDS011;5433;50.862;4.320;2023-12-20T01:27:19;9.00;;;3.10;;
10761;SDS011;5433;50.862;4.320;2023-12-20T01:29:45;8.95;;;2.72;;
10761;SDS011;5433;50.862;4.320;2023-12-20T01:32:11;8.02;;;2.50;;
10761;SDS011;5433;50.862;4.320;2023-12-20T01:34:37;11.63;;;2.75;;
10761;SDS011;5433;50.862;4.320;2023-12-20T01:37:03;11.10;;;3.10;;
10761;SDS011;5433;50.862;4.320;2023-12-20T01:39:29;10.95;;;3.22;;
10761;SDS011;5433;50.862;4.320;2023-12-20T01:41:55;9.02;;;2.75;;
10761;SDS011;5433;50.862;4.320;2023-12-20T01:44:21;10.70;;;2.88;;
10761;SDS011;5433;50.862;4.320;2023-12-20T01:46:47;11.88;;;2.90;;
10761;SDS011;5433;50.862;4.320;2023-12-20T01:49:14;10.75;;;2.70;;
10761;SDS011;5433;50.862;4.320;2023-12-20T01:51:40;9.70;;;2.97;;
10761;SDS011;5433;50.862;4.320;2023-12-20T01:54:06;8.05;;;2.53;;
10761;SDS011;5433;50.862;4.320;2023-12-20T01:56:32;10.57;;;2.95;;
10761;SDS011;5433;50.862;4.320;2023-12-20T01:58:58;11.65;;;2.85;;
10761;SDS011;5433;50.862;4.320;2023-12-20T02:01:26;12.88;;;3.05;;
10761;SDS011;5433;50.862;4.320;2023-12-20T02:03:53;10.80;;;2.58;;
10761;SDS011;5433;50.862;4.320;2023-12-20T02:06:19;13.40;;;3.00;;
10761;SDS011;5433;50.862;4.320;2023-12-20T02:08:47;8.77;;;2.80;;
10761;SDS011;5433;50.862;4.320;2023-12-20T02:11:14;9.63;;;2.85;;
10761;SDS011;5433;50.862;4.320;2023-12-20T02:13:40;12.02;;;3.17;;
10761;SDS011;5433;50.862;4.320;2023-12-20T02:16:06;9.50;;;3.05;;
10761;SDS011;5433;50.862;4.320;2023-12-20T02:18:33;9.52;;;2.65;;
10761;SDS011;5433;50.862;4.320;2023-12-20T02:20:59;12.10;;;2.88;;
10761;SDS011;5433;50.862;4.320;2023-12-20T02:23:25;10.35;;;2.90;;
10761;SDS011;5433;50.862;4.320;2023-12-20T02:25:51;11.40;;;3.20;;
10761;SDS011;5433;50.862;4.320;2023-12-20T02:28:17;8.45;;;3.05;;
10761;SDS011;5433;50.862;4.320;2023-12-20T02:30:43;9.52;;;2.92;;
10761;SDS011;5433;50.862;4.320;2023-12-20T02:33:10;15.10;;;3.17;;
10761;SDS011;5433;50.862;4.320;2023-12-20T02:35:36;11.55;;;3.08;;
10761;SDS011;5433;50.862;4.320;2023-12-20T02:38:02;12.43;;;2.85;;
10761;SDS011;5433;50.862;4.320;2023-12-20T02:40:28;9.50;;;2.50;;
10761;SDS011;5433;50.862;4.320;2023-12-20T02:42:54;14.30;;;3.10;;
10761;SDS011;5433;50.862;4.320;2023-12-20T02:45:20;14.25;;;3.45;;
10761;SDS011;5433;50.862;4.320;2023-12-20T02:47:46;13.27;;;3.17;;
10761;SDS011;5433;50.862;4.320;2023-12-20T02:50:12;10.25;;;3.20;;
10761;SDS011;5433;50.862;4.320;2023-12-20T02:52:38;15.38;;;3.72;;
10761;SDS011;5433;50.862;4.320;2023-12-20T02:55:04;10.93;;;2.95;;
10761;SDS011;5433;50.862;4.320;2023-12-20T02:57:30;17.00;;;3.38;;
10761;SDS011;5433;50.862;4.320;2023-12-20T02:59:58;14.30;;;3.63;;
10761;SDS011;5433;50.862;4.320;2023-12-20T03:02:24;14.30;;;3.40;;
10761;SDS011;5433;50.862;4.320;2023-12-20T03:04:50;11.25;;;3.45;;
10761;SDS011;5433;50.862;4.320;2023-12-20T03:07:16;15.98;;;3.50;;
10761;SDS011;5433;50.862;4.320;2023-12-20T03:09:42;13.73;;;3.50;;
10761;SDS011;5433;50.862;4.320;2023-12-20T03:12:08;8.85;;;2.92;;
10761;SDS011;5433;50.862;4.320;2023-12-20T03:14:34;10.23;;;3.08;;
10761;SDS011;5433;50.862;4.320;2023-12-20T03:17:00;11.55;;;3.40;;
10761;SDS011;5433;50.862;4.320;2023-12-20T03:19:27;15.23;;;3.78;;
10761;SDS011;5433;50.862;4.320;2023-12-20T03:21:54;17.52;;;3.72;;
10761;SDS011;5433;50.862;4.320;2023-12-20T03:24:20;11.05;;;3.05;;
10761;SDS011;5433;50.862;4.320;2023-12-20T03:26:46;11.77;;;3.13;;
10761;SDS011;5433;50.862;4.320;2023-12-20T03:29:12;12.45;;;3.10;;
10761;SDS011;5433;50.862;4.320;2023-12-20T03:31:38;12.32;;;3.38;;
10761;SDS011;5433;50.862;4.320;2023-12-20T03:34:04;9.90;;;3.08;;
10761;SDS011;5433;50.862;4.320;2023-12-20T03:36:30;8.18;;;2.53;;
10761;SDS011;5433;50.862;4.320;2023-12-20T03:38:56;11.60;;;3.17;;
10761;SDS011;5433;50.862;4.320;2023-12-20T03:41:21;13.77;;;3.08;;
10761;SDS011;5433;50.862;4.320;2023-12-20T03:43:47;12.85;;;3.40;;
10761;SDS011;5433;50.862;4.320;2023-12-20T03:46:13;10.32;;;3.22;;
10761;SDS011;5433;50.862;4.320;2023-12-20T03:48:39;7.50;;;3.08;;
10761;SDS011;5433;50.862;4.320;2023-12-20T03:51:05;7.00;;;2.88;;
10761;SDS011;5433;50.862;4.320;2023-12-20T03:53:31;9.18;;;2.85;;
10761;SDS011;5433;50.862;4.320;2023-12-20T03:55:57;10.55;;;2.80;;
10761;SDS011;5433;50.862;4.320;2023-12-20T03:58:23;12.73;;;3.45;;
10761;SDS011;5433;50.862;4.320;2023-12-20T04:00:49;13.43;;;3.85;;
10761;SDS011;5433;50.862;4.320;2023-12-20T04:03:15;9.68;;;3.30;;
10761;SDS011;5433;50.862;4.320;2023-12-20T04:05:41;10.20;;;3.40;;
10761;SDS011;5433;50.862;4.320;2023-12-20T04:08:07;9.35;;;3.55;;
10761;SDS011;5433;50.862;4.320;2023-12-20T04:10:33;8.77;;;3.08;;
10761;SDS011;5433;50.862;4.320;2023-12-20T04:12:59;7.80;;;2.67;;
10761;SDS011;5433;50.862;4.320;2023-12-20T04:15:25;10.40;;;2.70;;
10761;SDS011;5433;50.862;4.320;2023-12-20T04:17:51;10.05;;;3.15;;
10761;SDS011;5433;50.862;4.320;2023-12-20T04:20:17;14.15;;;3.00;;
10761;SDS011;5433;50.862;4.320;2023-12-20T04:22:43;12.70;;;3.00;;
10761;SDS011;5433;50.862;4.320;2023-12-20T04:25:09;14.00;;;3.00;;
10761;SDS011;5433;50.862;4.320;2023-12-20T04:27:35;9.85;;;2.90;;
10761;SDS011;5433;50.862;4.320;2023-12-20T04:30:02;12.63;;;3.20;;
10761;SDS011;5433;50.862;4.320;2023-12-20T04:32:28;9.05;;;2.65;;
10761;SDS011;5433;50.862;4.320;2023-12-20T04:34:54;11.25;;;2.78;;
10761;SDS011;5433;50.862;4.320;2023-12-20T04:37:20;9.23;;;3.22;;
10761;SDS011;5433;50.862;4.320;2023-12-20T04:39:46;8.75;;;2.60;;
10761;SDS011;5433;50.862;4.320;2023-12-20T04:42:12;12.80;;;3.40;;
10761;SDS011;5433;50.862;4.320;2023-12-20T04:44:49;9.15;;;2.53;;
10761;SDS011;5433;50.862;4.320;2023-12-20T04:47:15;8.23;;;2.63;;
10761;SDS011;5433;50.862;4.320;2023-12-20T04:49:41;12.02;;;3.13;;
10761;SDS011;5433;50.862;4.320;2023-12-20T04:52:07;10.10;;;2.83;;
10761;SDS011;5433;50.862;4.320;2023-12-20T04:54:33;15.45;;;3.05;;
10761;SDS011;5433;50.862;4.320;2023-12-20T04:56:59;9.77;;;2.75;;
10761;SDS011;5433;50.862;4.320;2023-12-20T04:59:25;8.35;;;3.20;;
10761;SDS011;5433;50.862;4.320;2023-12-20T05:01:51;8.57;;;3.08;;
10761;SDS011;5433;50.862;4.320;2023-12-20T05:04:17;11.63;;;3.17;;
10761;SDS011;5433;50.862;4.320;2023-12-20T05:06:43;11.95;;;3.35;;
10761;SDS011;5433;50.862;4.320;2023-12-20T05:09:09;12.05;;;3.25;;
10761;SDS011;5433;50.862;4.320;2023-12-20T05:11:35;9.45;;;3.10;;
10761;SDS011;5433;50.862;4.320;2023-12-20T05:14:01;10.70;;;3.40;;
10761;SDS011;5433;50.862;4.320;2023-12-20T05:16:27;9.77;;;3.33;;
10761;SDS011;5433;50.862;4.320;2023-12-20T05:18:53;9.98;;;3.08;;
10761;SDS011;5433;50.862;4.320;2023-12-20T05:21:19;13.88;;;3.42;;
10761;SDS011;5433;50.862;4.320;2023-12-20T05:23:45;7.85;;;2.88;;
10761;SDS011;5433;50.862;4.320;2023-12-20T05:26:11;14.48;;;3.33;;
10761;SDS011;5433;50.862;4.320;2023-12-20T05:28:37;11.43;;;3.20;;
10761;SDS011;5433;50.862;4.320;2023-12-20T05:31:03;11.32;;;3.53;;
10761;SDS011;5433;50.862;4.320;2023-12-20T05:33:29;12.98;;;3.45;;
10761;SDS011;5433;50.862;4.320;2023-12-20T05:35:55;10.32;;;3.33;;
10761;SDS011;5433;50.862;4.320;2023-12-20T05:38:21;11.85;;;3.17;;
10761;SDS011;5433;50.862;4.320;2023-12-20T05:40:47;11.68;;;3.30;;
10761;SDS011;5433;50.862;4.320;2023-12-20T05:43:13;9.40;;;3.20;;
10761;SDS011;5433;50.862;4.320;2023-12-20T05:45:39;12.35;;;3.25;;
10761;SDS011;5433;50.862;4.320;2023-12-20T05:48:05;7.47;;;2.90;;
10761;SDS011;5433;50.862;4.320;2023-12-20T05:50:31;13.25;;;3.53;;
10761;SDS011;5433;50.862;4.320;2023-12-20T05:52:57;9.98;;;3.20;;
10761;SDS011;5433;50.862;4.320;2023-12-20T05:55:23;10.63;;;2.70;;
10761;SDS011;5433;50.862;4.320;2023-12-20T05:57:49;12.80;;;3.10;;
10761;SDS011;5433;50.862;4.320;2023-12-20T06:00:15;12.45;;;3.10;;
10761;SDS011;5433;50.862;4.320;2023-12-20T06:02:41;10.52;;;3.45;;
10761;SDS011;5433;50.862;4.320;2023-12-20T06:05:07;11.65;;;3.15;;
10761;SDS011;5433;50.862;4.320;2023-12-20T06:07:33;7.20;;;2.80;;
10761;SDS011;5433;50.862;4.320;2023-12-20T06:09:59;13.23;;;2.90;;
10761;SDS011;5433;50.862;4.320;2023-12-20T06:12:25;8.02;;;2.88;;
10761;SDS011;5433;50.862;4.320;2023-12-20T06:14:57;6.60;;;2.55;;
10761;SDS011;5433;50.862;4.320;2023-12-20T06:17:23;12.23;;;2.67;;
10761;SDS011;5433;50.862;4.320;2023-12-20T06:19:49;13.20;;;3.20;;
10761;SDS011;5433;50.862;4.320;2023-12-20T06:22:15;13.35;;;3.10;;
10761;SDS011;5433;50.862;4.320;2023-12-20T06:24:41;10.27;;;2.75;;
10761;SDS011;5433;50.862;4.320;2023-12-20T06:27:07;11.32;;;2.80;;
10761;SDS011;5433;50.862;4.320;2023-12-20T06:29:33;12.95;;;3.20;;
10761;SDS011;5433;50.862;4.320;2023-12-20T06:31:59;12.68;;;2.65;;
10761;SDS011;5433;50.862;4.320;2023-12-20T06:34:25;9.93;;;2.60;;
10761;SDS011;5433;50.862;4.320;2023-12-20T06:36:51;9.18;;;2.47;;
10761;SDS011;5433;50.862;4.320;2023-12-20T06:39:17;7.75;;;2.30;;
10761;SDS011;5433;50.862;4.320;2023-12-20T06:41:43;10.43;;;2.92;;
10761;SDS011;5433;50.862;4.320;2023-12-20T06:44:09;10.80;;;2.70;;
10761;SDS011;5433;50.862;4.320;2023-12-20T06:46:35;12.23;;;2.47;;
10761;SDS011;5433;50.862;4.320;2023-12-20T06:49:01;10.48;;;2.70;;
10761;SDS011;5433;50.862;4.320;2023-12-20T06:51:27;6.03;;;2.38;;
10761;SDS011;5433;50.862;4.320;2023-12-20T06:53:55;11.32;;;2.55;;
10761;SDS011;5433;50.862;4.320;2023-12-20T06:56:21;9.35;;;2.53;;
10761;SDS011;5433;50.862;4.320;2023-12-20T06:58:47;9.98;;;2.38;;
10761;SDS011;5433;50.862;4.320;2023-12-20T07:01:14;8.98;;;2.45;;
10761;SDS011;5433;50.862;4.320;2023-12-20T07:03:40;12.82;;;2.40;;
10761;SDS011;5433;50.862;4.320;2023-12-20T07:06:06;9.00;;;2.47;;
10761;SDS011;5433;50.862;4.320;2023-12-20T07:08:32;10.90;;;2.70;;
10761;SDS011;5433;50.862;4.320;2023-12-20T07:10:58;11.10;;;2.65;;
10761;SDS011;5433;50.862;4.320;2023-12-20T07:13:24;11.30;;;2.70;;
10761;SDS011;5433;50.862;4.320;2023-12-20T07:15:50;11.82;;;3.00;;
10761;SDS011;5433;50.862;4.320;2023-12-20T07:18:16;9.90;;;2.75;;
10761;SDS011;5433;50.862;4.320;2023-12-20T07:20:42;14.10;;;3.22;;
10761;SDS011;5433;50.862;4.320;2023-12-20T07:23:09;10.75;;;2.88;;
10761;SDS011;5433;50.862;4.320;2023-12-20T07:25:35;8.38;;;2.90;;
10761;SDS011;5433;50.862;4.320;2023-12-20T07:28:01;10.30;;;2.67;;
10761;SDS011;5433;50.862;4.320;2023-12-20T07:30:27;8.32;;;2.40;;
10761;SDS011;5433;50.862;4.320;2023-12-20T07:32:53;12.77;;;2.78;;
10761;SDS011;5433;50.862;4.320;2023-12-20T07:35:19;8.30;;;2.35;;
10761;SDS011;5433;50.862;4.320;2023-12-20T07:37:45;7.13;;;2.15;;
10761;SDS011;5433;50.862;4.320;2023-12-20T07:40:11;14.70;;;2.85;;
10761;SDS011;5433;50.862;4.320;2023-12-20T07:42:37;12.63;;;2.58;;
10761;SDS011;5433;50.862;4.320;2023-12-20T07:45:03;10.20;;;2.45;;
10761;SDS011;5433;50.862;4.320;2023-12-20T07:47:29;7.85;;;2.30;;
10761;SDS011;5433;50.862;4.320;2023-12-20T07:49:55;7.75;;;2.58;;
10761;SDS011;5433;50.862;4.320;2023-12-20T07:52:21;10.57;;;3.30;;
10761;SDS011;5433;50.862;4.320;2023-12-20T07:54:47;11.18;;;2.90;;
10761;SDS011;5433;50.862;4.320;2023-12-20T07:57:14;8.98;;;2.40;;
10761;SDS011;5433;50.862;4.320;2023-12-20T07:59:39;10.05;;;2.50;;
10761;SDS011;5433;50.862;4.320;2023-12-20T08:02:05;10.60;;;2.50;;
10761;SDS011;5433;50.862;4.320;2023-12-20T08:04:32;13.20;;;2.85;;
10761;SDS011;5433;50.862;4.320;2023-12-20T08:06:58;12.65;;;2.67;;
10761;SDS011;5433;50.862;4.320;2023-12-20T08:09:25;12.73;;;2.58;;
10761;SDS011;5433;50.862;4.320;2023-12-20T08:11:51;11.95;;;2.78;;
10761;SDS011;5433;50.862;4.320;2023-12-20T08:14:17;12.85;;;2.58;;
10761;SDS011;5433;50.862;4.320;2023-12-20T08:16:43;9.57;;;2.53;;
10761;SDS011;5433;50.862;4.320;2023-12-20T08:19:09;11.18;;;2.97;;
10761;SDS011;5433;50.862;4.320;2023-12-20T08:21:35;10.68;;;2.60;;
10761;SDS011;5433;50.862;4.320;2023-12-20T08:24:01;11.20;;;3.03;;
10761;SDS011;5433;50.862;4.320;2023-12-20T08:26:27;10.95;;;2.60;;
10761;SDS011;5433;50.862;4.320;2023-12-20T08:28:53;11.40;;;3.03;;
10761;SDS011;5433;50.862;4.320;2023-12-20T08:31:19;9.15;;;2.60;;
10761;SDS011;5433;50.862;4.320;2023-12-20T08:33:47;9.43;;;2.67;;
10761;SDS011;5433;50.862;4.320;2023-12-20T08:36:13;9.93;;;2.70;;
10761;SDS011;5433;50.862;4.320;2023-12-20T08:38:39;12.15;;;2.83;;
10761;SDS011;5433;50.862;4.320;2023-12-20T08:41:06;11.52;;;2.40;;
10761;SDS011;5433;50.862;4.320;2023-12-20T08:43:33;9.80;;;2.38;;
10761;SDS011;5433;50.862;4.320;2023-12-20T08:46:00;8.57;;;2.88;;
10761;SDS011;5433;50.862;4.320;2023-12-20T08:48:26;8.32;;;2.50;;
10761;SDS011;5433;50.862;4.320;2023-12-20T08:50:52;11.30;;;2.88;;
10761;SDS011;5433;50.862;4.320;2023-12-20T08:53:18;10.18;;;2.72;;
10761;SDS011;5433;50.862;4.320;2023-12-20T08:55:44;10.23;;;2.53;;
10761;SDS011;5433;50.862;4.320;2023-12-20T08:58:10;10.38;;;2.72;;
10761;SDS011;5433;50.862;4.320;2023-12-20T09:00:37;9.00;;;2.40;;
10761;SDS011;5433;50.862;4.320;2023-12-20T09:03:03;9.70;;;2.50;;
10761;SDS011;5433;50.862;4.320;2023-12-20T09:05:30;12.55;;;2.42;;
10761;SDS011;5433;50.862;4.320;2023-12-20T09:07:56;9.60;;;2.70;;
10761;SDS011;5433;50.862;4.320;2023-12-20T09:10:22;9.25;;;2.60;;
10761;SDS011;5433;50.862;4.320;2023-12-20T09:12:50;9.70;;;2.47;;
10761;SDS011;5433;50.862;4.320;2023-12-20T09:15:16;9.20;;;2.22;;
10761;SDS011;5433;50.862;4.320;2023-12-20T09:17:42;9.57;;;2.35;;
10761;SDS011;5433;50.862;4.320;2023-12-20T09:20:09;8.82;;;2.38;;
10761;SDS011;5433;50.862;4.320;2023-12-20T09:22:35;11.55;;;3.05;;
10761;SDS011;5433;50.862;4.320;2023-12-20T09:25:03;10.52;;;3.00;;
10761;SDS011;5433;50.862;4.320;2023-12-20T09:27:29;9.18;;;3.10;;
10761;SDS011;5433;50.862;4.320;2023-12-20T09:29:55;12.02;;;2.65;;
10761;SDS011;5433;50.862;4.320;2023-12-20T09:32:21;8.68;;;2.63;;
10761;SDS011;5433;50.862;4.320;2023-12-20T09:34:47;10.20;;;2.97;;
10761;SDS011;5433;50.862;4.320;2023-12-20T09:37:13;9.25;;;2.88;;
10761;SDS011;5433;50.862;4.320;2023-12-20T09:39:39;10.50;;;2.60;;
10761;SDS011;5433;50.862;4.320;2023-12-20T09:42:06;9.27;;;2.55;;
10761;SDS011;5433;50.862;4.320;2023-12-20T09:44:33;14.63;;;3.10;;
10761;SDS011;5433;50.862;4.320;2023-12-20T09:47:02;9.40;;;2.58;;
10761;SDS011;5433;50.862;4.320;2023-12-20T09:49:28;8.60;;;2.85;;
10761;SDS011;5433;50.862;4.320;2023-12-20T09:51:55;10.43;;;2.70;;
10761;SDS011;5433;50.862;4.320;2023-12-20T09:54:22;10.90;;;2.97;;
10761;SDS011;5433;50.862;4.320;2023-12-20T09:56:49;8.65;;;2.80;;
10761;SDS011;5433;50.862;4.320;2023-12-20T09:59:15;8.38;;;2.63;;
10761;SDS011;5433;50.862;4.320;2023-12-20T10:01:41;11.25;;;2.55;;
10761;SDS011;5433;50.862;4.320;2023-12-20T10:04:08;11.40;;;2.97;;
10761;SDS011;5433;50.862;4.320;2023-12-20T10:06:37;11.75;;;2.97;;
10761;SDS011;5433;50.862;4.320;2023-12-20T10:09:03;11.80;;;2.47;;
10761;SDS011;5433;50.862;4.320;2023-12-20T10:11:29;9.48;;;2.40;;
10761;SDS011;5433;50.862;4.320;2023-12-20T10:13:58;11.40;;;2.47;;
10761;SDS011;5433;50.862;4.320;2023-12-20T10:16:26;9.75;;;2.85;;
10761;SDS011;5433;50.862;4.320;2023-12-20T10:18:56;10.32;;;2.80;;
10761;SDS011;5433;50.862;4.320;2023-12-20T10:21:22;10.63;;;2.80;;
10761;SDS011;5433;50.862;4.320;2023-12-20T10:23:51;9.95;;;3.00;;
10761;SDS011;5433;50.862;4.320;2023-12-20T10:26:20;10.07;;;2.55;;
10761;SDS011;5433;50.862;4.320;2023-12-20T10:28:49;10.65;;;2.67;;
10761;SDS011;5433;50.862;4.320;2023-12-20T10:31:32;10.52;;;2.25;;
10761;SDS011;5433;50.862;4.320;2023-12-20T10:33:59;10.68;;;2.80;;
10761;SDS011;5433;50.862;4.320;2023-12-20T10:36:25;10.63;;;2.63;;
10761;SDS011;5433;50.862;4.320;2023-12-20T10:38:52;8.57;;;2.65;;
10761;SDS011;5433;50.862;4.320;2023-12-20T10:41:19;5.78;;;2.47;;
10761;SDS011;5433;50.862;4.320;2023-12-20T10:43:47;10.65;;;2.67;;
10761;SDS011;5433;50.862;4.320;2023-12-20T10:46:13;8.88;;;2.60;;
10761;SDS011;5433;50.862;4.320;2023-12-20T10:48:39;10.98;;;2.70;;
10761;SDS011;5433;50.862;4.320;2023-12-20T10:51:05;10.02;;;2.75;;
10761;SDS011;5433;50.862;4.320;2023-12-20T10:53:32;13.32;;;2.67;;
10761;SDS011;5433;50.862;4.320;2023-12-20T10:56:00;7.30;;;2.40;;
10761;SDS011;5433;50.862;4.320;2023-12-20T10:58:26;13.70;;;2.67;;
10761;SDS011;5433;50.862;4.320;2023-12-20T11:00:54;7.93;;;2.38;;
10761;SDS011;5433;50.862;4.320;2023-12-20T11:03:24;9.18;;;2.30;;
10761;SDS011;5433;50.862;4.320;2023-12-20T11:06:02;10.82;;;2.30;;
10761;SDS011;5433;50.862;4.320;2023-12-20T11:08:33;9.13;;;2.40;;
10761;SDS011;5433;50.862;4.320;2023-12-20T11:11:45;8.93;;;2.60;;
10761;SDS011;5433;50.862;4.320;2023-12-20T11:13:58;9.25;;;2.53;;
10761;SDS011;5433;50.862;4.320;2023-12-20T11:16:25;8.50;;;2.20;;
10761;SDS011;5433;50.862;4.320;2023-12-20T11:18:51;10.35;;;2.50;;
10761;SDS011;5433;50.862;4.320;2023-12-20T11:21:17;10.02;;;2.65;;
10761;SDS011;5433;50.862;4.320;2023-12-20T11:23:43;11.90;;;2.20;;
10761;SDS011;5433;50.862;4.320;2023-12-20T11:26:09;8.30;;;2.58;;
10761;SDS011;5433;50.862;4.320;2023-12-20T11:28:35;12.73;;;2.70;;
10761;SDS011;5433;50.862;4.320;2023-12-20T11:31:02;9.80;;;2.38;;
10761;SDS011;5433;50.862;4.320;2023-12-20T11:33:31;9.88;;;2.00;;
10761;SDS011;5433;50.862;4.320;2023-12-20T11:35:58;9.15;;;2.42;;
10761;SDS011;5433;50.862;4.320;2023-12-20T11:38:25;7.75;;;2.30;;
10761;SDS011;5433;50.862;4.320;2023-12-20T11:40:53;10.98;;;2.38;;
10761;SDS011;5433;50.862;4.320;2023-12-20T11:43:30;8.98;;;2.42;;
10761;SDS011;5433;50.862;4.320;2023-12-20T11:46:03;9.25;;;2.50;;
10761;SDS011;5433;50.862;4.320;2023-12-20T11:48:30;9.57;;;2.65;;
10761;SDS011;5433;50.862;4.320;2023-12-20T11:50:56;9.35;;;2.60;;
10761;SDS011;5433;50.862;4.320;2023-12-20T11:53:22;12.02;;;2.53;;
10761;SDS011;5433;50.862;4.320;2023-12-20T11:55:49;10.95;;;2.58;;
10761;SDS011;5433;50.862;4.320;2023-12-20T11:58:15;11.27;;;3.03;;
10761;SDS011;5433;50.862;4.320;2023-12-20T12:00:41;10.45;;;3.05;;
10761;SDS011;5433;50.862;4.320;2023-12-20T12:03:08;10.95;;;4.07;;
10761;SDS011;5433;50.862;4.320;2023-12-20T12:05:34;9.75;;;2.70;;
10761;SDS011;5433;50.862;4.320;2023-12-20T12:08:01;10.55;;;2.13;;
10761;SDS011;5433;50.862;4.320;2023-12-20T12:10:27;11.25;;;2.75;;
10761;SDS011;5433;50.862;4.320;2023-12-20T12:12:53;11.85;;;2.97;;
10761;SDS011;5433;50.862;4.320;2023-12-20T12:15:19;11.43;;;2.63;;
10761;SDS011;5433;50.862;4.320;2023-12-20T12:17:52;7.45;;;2.45;;
10761;SDS011;5433;50.862;4.320;2023-12-20T12:20:19;10.05;;;2.28;;
10761;SDS011;5433;50.862;4.320;2023-12-20T12:22:45;10.52;;;2.70;;
10761;SDS011;5433;50.862;4.320;2023-12-20T12:25:15;5.90;;;1.92;;
10761;SDS011;5433;50.862;4.320;2023-12-20T12:27:42;9.73;;;2.25;;
10761;SDS011;5433;50.862;4.320;2023-12-20T12:30:08;9.93;;;2.55;;
10761;SDS011;5433;50.862;4.320;2023-12-20T12:32:34;11.48;;;2.67;;
10761;SDS011;5433;50.862;4.320;2023-12-20T12:35:02;8.82;;;2.50;;
10761;SDS011;5433;50.862;4.320;2023-12-20T12:37:29;9.15;;;2.22;;
10761;SDS011;5433;50.862;4.320;2023-12-20T12:39:55;9.32;;;2.30;;
10761;SDS011;5433;50.862;4.320;2023-12-20T12:42:21;6.95;;;2.50;;
10761;SDS011;5433;50.862;4.320;2023-12-20T12:44:50;8.02;;;2.50;;
10761;SDS011;5433;50.862;4.320;2023-12-20T12:47:17;8.43;;;2.15;;
10761;SDS011;5433;50.862;4.320;2023-12-20T12:49:43;12.25;;;2.78;;
10761;SDS011;5433;50.862;4.320;2023-12-20T12:52:09;10.20;;;2.35;;
10761;SDS011;5433;50.862;4.320;2023-12-20T12:54:35;9.82;;;2.42;;
10761;SDS011;5433;50.862;4.320;2023-12-20T12:57:01;7.88;;;2.42;;
10761;SDS011;5433;50.862;4.320;2023-12-20T12:59:27;10.18;;;2.30;;
10761;SDS011;5433;50.862;4.320;2023-12-20T13:01:53;7.15;;;2.50;;
10761;SDS011;5433;50.862;4.320;2023-12-20T13:04:19;10.60;;;2.30;;
10761;SDS011;5433;50.862;4.320;2023-12-20T13:06:45;10.80;;;2.42;;
10761;SDS011;5433;50.862;4.320;2023-12-20T13:09:12;10.18;;;2.53;;
10761;SDS011;5433;50.862;4.320;2023-12-20T13:11:38;8.02;;;2.25;;
10761;SDS011;5433;50.862;4.320;2023-12-20T13:14:04;11.95;;;2.70;;
10761;SDS011;5433;50.862;4.320;2023-12-20T13:16:30;7.60;;;2.47;;
10761;SDS011;5433;50.862;4.320;2023-12-20T13:18:56;9.50;;;2.30;;
10761;SDS011;5433;50.862;4.320;2023-12-20T13:21:22;7.80;;;2.15;;
10761;SDS011;5433;50.862;4.320;2023-12-20T13:23:48;8.05;;;2.60;;
10761;SDS011;5433;50.862;4.320;2023-12-20T13:26:14;8.23;;;2.42;;
10761;SDS011;5433;50.862;4.320;2023-12-20T13:28:40;8.23;;;2.72;;
10761;SDS011;5433;50.862;4.320;2023-12-20T13:31:06;8.77;;;2.40;;
10761;SDS011;5433;50.862;4.320;2023-12-20T13:33:32;11.27;;;2.70;;
10761;SDS011;5433;50.862;4.320;2023-12-20T13:35:58;9.90;;;2.45;;
10761;SDS011;5433;50.862;4.320;2023-12-20T13:38:24;8.05;;;2.47;;
10761;SDS011;5433;50.862;4.320;2023-12-20T13:40:50;10.68;;;2.35;;
10761;SDS011;5433;50.862;4.320;2023-12-20T13:43:16;8.55;;;2.58;;
10761;SDS011;5433;50.862;4.320;2023-12-20T13:45:45;8.75;;;2.50;;
10761;SDS011;5433;50.862;4.320;2023-12-20T13:48:11;7.90;;;2.30;;
10761;SDS011;5433;50.862;4.320;2023-12-20T13:50:38;11.00;;;2.97;;
10761;SDS011;5433;50.862;4.320;2023-12-20T13:53:04;10.77;;;2.25;;
10761;SDS011;5433;50.862;4.320;2023-12-20T13:55:30;10.07;;;2.35;;
10761;SDS011;5433;50.862;4.320;2023-12-20T13:57:56;15.82;;;2.50;;
10761;SDS011;5433;50.862;4.320;2023-12-20T14:00:22;8.65;;;2.38;;
10761;SDS011;5433;50.862;4.320;2023-12-20T14:02:48;7.93;;;2.42;;
10761;SDS011;5433;50.862;4.320;2023-12-20T14:05:15;11.68;;;2.67;;
10761;SDS011;5433;50.862;4.320;2023-12-20T14:07:43;8.73;;;2.28;;
10761;SDS011;5433;50.862;4.320;2023-12-20T14:10:12;12.43;;;2.47;;
10761;SDS011;5433;50.862;4.320;2023-12-20T14:12:41;9.50;;;2.40;;
10761;SDS011;5433;50.862;4.320;2023-12-20T14:15:09;14.93;;;2.97;;
10761;SDS011;5433;50.862;4.320;2023-12-20T14:17:39;9.65;;;2.28;;
10761;SDS011;5433;50.862;4.320;2023-12-20T14:20:05;7.60;;;2.63;;
10761;SDS011;5433;50.862;4.320;2023-12-20T14:22:32;10.07;;;2.45;;
10761;SDS011;5433;50.862;4.320;2023-12-20T14:24:58;8.90;;;2.08;;
10761;SDS011;5433;50.862;4.320;2023-12-20T14:27:26;12.63;;;2.55;;
10761;SDS011;5433;50.862;4.320;2023-12-20T14:29:55;9.15;;;3.60;;
10761;SDS011;5433;50.862;4.320;2023-12-20T14:32:21;6.95;;;2.40;;
10761;SDS011;5433;50.862;4.320;2023-12-20T14:34:47;12.43;;;2.42;;
10761;SDS011;5433;50.862;4.320;2023-12-20T14:37:13;6.75;;;2.05;;
10761;SDS011;5433;50.862;4.320;2023-12-20T14:39:40;9.27;;;2.05;;
10761;SDS011;5433;50.862;4.320;2023-12-20T14:42:07;6.68;;;2.10;;
10761;SDS011;5433;50.862;4.320;2023-12-20T14:44:39;9.60;;;2.65;;
10761;SDS011;5433;50.862;4.320;2023-12-20T14:47:06;9.35;;;2.38;;
10761;SDS011;5433;50.862;4.320;2023-12-20T14:49:32;9.80;;;2.67;;